sensor_id;sensor_type;location;lat;lon;timestamp;temperature;humidity
71879;DHT22;59755;43.834;4.364;2022-11-25T00:00:52;11.70;70.50
71879;DHT22;59755;43.834;4.364;2022-11-25T00:03:18;11.70;70.60
71879;DHT22;59755;43.834;4.364;2022-11-25T00:05:44;11.60;70.90
71879;DHT22;59755;43.834;4.364;2022-11-25T00:08:09;11.50;71.10
71879;DHT22;59755;43.834;4.364;2022-11-25T00:10:35;11.50;71.50
71879;DHT22;59755;43.834;4.364;2022-11-25T00:13:01;11.40;71.80
71879;DHT22;59755;43.834;4.364;2022-11-25T00:15:26;11.40;71.30
71879;DHT22;59755;43.834;4.364;2022-11-25T00:17:52;11.40;71.50
71879;DHT22;59755;43.834;4.364;2022-11-25T00:20:18;11.40;71.30
71879;DHT22;59755;43.834;4.364;2022-11-25T00:22:45;11.40;71.30
71879;DHT22;59755;43.834;4.364;2022-11-25T00:25:11;11.40;71.00
71879;DHT22;59755;43.834;4.364;2022-11-25T00:27:37;11.40;71.50
71879;DHT22;59755;43.834;4.364;2022-11-25T00:30:03;11.30;71.60
71879;DHT22;59755;43.834;4.364;2022-11-25T00:32:29;11.30;71.70
71879;DHT22;59755;43.834;4.364;2022-11-25T00:34:55;11.20;71.70
71879;DHT22;59755;43.834;4.364;2022-11-25T00:37:21;11.20;71.90
71879;DHT22;59755;43.834;4.364;2022-11-25T00:39:46;11.20;72.30
71879;DHT22;59755;43.834;4.364;2022-11-25T00:42:12;11.20;72.40
71879;DHT22;59755;43.834;4.364;2022-11-25T00:44:56;11.20;72.80
71879;DHT22;59755;43.834;4.364;2022-11-25T00:47:22;11.30;72.90
71879;DHT22;59755;43.834;4.364;2022-11-25T00:49:51;11.20;72.90
71879;DHT22;59755;43.834;4.364;2022-11-25T00:52:19;11.20;73.20
71879;DHT22;59755;43.834;4.364;2022-11-25T00:54:46;11.20;73.20
71879;DHT22;59755;43.834;4.364;2022-11-25T00:57:13;11.20;72.80
71879;DHT22;59755;43.834;4.364;2022-11-25T00:59:39;11.30;72.50
71879;DHT22;59755;43.834;4.364;2022-11-25T01:02:05;11.30;72.60
71879;DHT22;59755;43.834;4.364;2022-11-25T01:04:31;11.30;72.50
71879;DHT22;59755;43.834;4.364;2022-11-25T01:06:57;11.30;72.30
71879;DHT22;59755;43.834;4.364;2022-11-25T01:09:25;11.30;72.20
71879;DHT22;59755;43.834;4.364;2022-11-25T01:11:52;11.30;72.70
71879;DHT22;59755;43.834;4.364;2022-11-25T01:14:18;11.30;72.40
71879;DHT22;59755;43.834;4.364;2022-11-25T01:16:44;11.30;72.80
71879;DHT22;59755;43.834;4.364;2022-11-25T01:19:11;11.20;72.60
71879;DHT22;59755;43.834;4.364;2022-11-25T01:21:37;11.10;73.90
71879;DHT22;59755;43.834;4.364;2022-11-25T01:24:04;10.90;74.40
71879;DHT22;59755;43.834;4.364;2022-11-25T01:26:31;10.90;75.10
71879;DHT22;59755;43.834;4.364;2022-11-25T01:28:59;10.90;75.10
71879;DHT22;59755;43.834;4.364;2022-11-25T01:31:28;10.90;75.10
71879;DHT22;59755;43.834;4.364;2022-11-25T01:33:56;10.90;75.20
71879;DHT22;59755;43.834;4.364;2022-11-25T01:36:23;10.80;75.40
71879;DHT22;59755;43.834;4.364;2022-11-25T01:38:54;10.80;74.30
71879;DHT22;59755;43.834;4.364;2022-11-25T01:41:22;10.80;74.10
71879;DHT22;59755;43.834;4.364;2022-11-25T01:44:07;10.80;73.90
71879;DHT22;59755;43.834;4.364;2022-11-25T01:54:41;10.40;76.10
71879;DHT22;59755;43.834;4.364;2022-11-25T01:57:16;10.40;76.30
71879;DHT22;59755;43.834;4.364;2022-11-25T01:59:47;10.50;75.50
71879;DHT22;59755;43.834;4.364;2022-11-25T02:02:14;10.50;75.60
71879;DHT22;59755;43.834;4.364;2022-11-25T02:04:41;10.50;74.90
71879;DHT22;59755;43.834;4.364;2022-11-25T02:07:12;10.50;75.00
71879;DHT22;59755;43.834;4.364;2022-11-25T02:09:41;10.40;75.30
71879;DHT22;59755;43.834;4.364;2022-11-25T02:12:08;10.40;74.90
71879;DHT22;59755;43.834;4.364;2022-11-25T02:14:34;10.40;75.10
71879;DHT22;59755;43.834;4.364;2022-11-25T02:17:00;10.50;75.00
71879;DHT22;59755;43.834;4.364;2022-11-25T02:20:06;10.50;74.60
71879;DHT22;59755;43.834;4.364;2022-11-25T02:25:21;10.60;74.30
71879;DHT22;59755;43.834;4.364;2022-11-25T02:27:52;10.60;74.40
71879;DHT22;59755;43.834;4.364;2022-11-25T02:30:19;10.50;74.80
71879;DHT22;59755;43.834;4.364;2022-11-25T02:32:46;10.50;74.70
71879;DHT22;59755;43.834;4.364;2022-11-25T02:38:06;10.50;75.30
71879;DHT22;59755;43.834;4.364;2022-11-25T02:43:14;10.60;75.10
71879;DHT22;59755;43.834;4.364;2022-11-25T02:48:30;10.70;74.50
71879;DHT22;59755;43.834;4.364;2022-11-25T02:50:56;10.70;74.90
71879;DHT22;59755;43.834;4.364;2022-11-25T02:53:22;10.60;75.10
71879;DHT22;59755;43.834;4.364;2022-11-25T02:55:48;10.60;74.60
71879;DHT22;59755;43.834;4.364;2022-11-25T02:58:14;10.70;74.40
71879;DHT22;59755;43.834;4.364;2022-11-25T03:00:40;10.70;74.50
71879;DHT22;59755;43.834;4.364;2022-11-25T03:03:06;10.70;74.60
71879;DHT22;59755;43.834;4.364;2022-11-25T03:05:32;10.80;74.70
71879;DHT22;59755;43.834;4.364;2022-11-25T03:07:58;10.80;74.20
71879;DHT22;59755;43.834;4.364;2022-11-25T03:10:23;10.80;74.70
71879;DHT22;59755;43.834;4.364;2022-11-25T03:12:49;10.80;74.50
71879;DHT22;59755;43.834;4.364;2022-11-25T03:15:15;10.90;74.00
71879;DHT22;59755;43.834;4.364;2022-11-25T03:17:41;10.80;73.80
71879;DHT22;59755;43.834;4.364;2022-11-25T03:20:08;10.80;73.60
71879;DHT22;59755;43.834;4.364;2022-11-25T03:22:35;10.90;73.70
71879;DHT22;59755;43.834;4.364;2022-11-25T03:25:00;10.90;73.50
71879;DHT22;59755;43.834;4.364;2022-11-25T03:27:26;10.80;73.60
71879;DHT22;59755;43.834;4.364;2022-11-25T03:29:52;10.80;73.90
71879;DHT22;59755;43.834;4.364;2022-11-25T03:32:18;10.80;73.80
71879;DHT22;59755;43.834;4.364;2022-11-25T03:34:43;10.80;74.20
71879;DHT22;59755;43.834;4.364;2022-11-25T03:37:09;10.80;74.00
71879;DHT22;59755;43.834;4.364;2022-11-25T03:39:35;10.90;74.00
71879;DHT22;59755;43.834;4.364;2022-11-25T03:42:01;10.90;74.00
71879;DHT22;59755;43.834;4.364;2022-11-25T03:44:26;10.80;74.20
71879;DHT22;59755;43.834;4.364;2022-11-25T03:46:52;10.80;74.00
71879;DHT22;59755;43.834;4.364;2022-11-25T03:49:18;10.80;74.20
71879;DHT22;59755;43.834;4.364;2022-11-25T03:51:46;10.80;74.30
71879;DHT22;59755;43.834;4.364;2022-11-25T03:54:12;10.70;74.90
71879;DHT22;59755;43.834;4.364;2022-11-25T03:56:37;10.70;75.20
71879;DHT22;59755;43.834;4.364;2022-11-25T03:59:03;10.60;75.40
71879;DHT22;59755;43.834;4.364;2022-11-25T04:01:29;10.60;75.30
71879;DHT22;59755;43.834;4.364;2022-11-25T04:03:55;10.50;75.80
71879;DHT22;59755;43.834;4.364;2022-11-25T04:06:20;10.60;75.60
71879;DHT22;59755;43.834;4.364;2022-11-25T04:08:48;10.50;75.90
71879;DHT22;59755;43.834;4.364;2022-11-25T04:11:14;10.50;76.10
71879;DHT22;59755;43.834;4.364;2022-11-25T04:13:40;10.40;76.10
71879;DHT22;59755;43.834;4.364;2022-11-25T04:16:05;10.40;76.00
71879;DHT22;59755;43.834;4.364;2022-11-25T04:18:31;10.30;76.70
71879;DHT22;59755;43.834;4.364;2022-11-25T04:20:57;10.30;76.80
71879;DHT22;59755;43.834;4.364;2022-11-25T04:23:23;10.30;76.40
71879;DHT22;59755;43.834;4.364;2022-11-25T04:25:49;10.40;76.40
71879;DHT22;59755;43.834;4.364;2022-11-25T04:28:15;10.40;75.80
71879;DHT22;59755;43.834;4.364;2022-11-25T04:30:41;10.30;76.00
71879;DHT22;59755;43.834;4.364;2022-11-25T04:33:07;10.30;76.60
71879;DHT22;59755;43.834;4.364;2022-11-25T04:35:33;10.30;76.40
71879;DHT22;59755;43.834;4.364;2022-11-25T04:37:59;10.20;76.60
71879;DHT22;59755;43.834;4.364;2022-11-25T04:40:24;10.00;76.90
71879;DHT22;59755;43.834;4.364;2022-11-25T04:42:50;10.00;76.80
71879;DHT22;59755;43.834;4.364;2022-11-25T04:45:16;10.00;76.70
71879;DHT22;59755;43.834;4.364;2022-11-25T04:47:43;10.00;77.10
71879;DHT22;59755;43.834;4.364;2022-11-25T04:50:14;10.00;77.20
71879;DHT22;59755;43.834;4.364;2022-11-25T04:52:40;9.90;77.30
71879;DHT22;59755;43.834;4.364;2022-11-25T04:55:06;9.90;77.50
71879;DHT22;59755;43.834;4.364;2022-11-25T04:57:32;9.90;76.90
71879;DHT22;59755;43.834;4.364;2022-11-25T04:59:58;9.90;76.50
71879;DHT22;59755;43.834;4.364;2022-11-25T05:02:25;10.00;77.00
71879;DHT22;59755;43.834;4.364;2022-11-25T05:04:53;10.00;76.30
71879;DHT22;59755;43.834;4.364;2022-11-25T05:07:21;10.00;76.20
71879;DHT22;59755;43.834;4.364;2022-11-25T05:09:47;10.10;76.80
71879;DHT22;59755;43.834;4.364;2022-11-25T05:12:16;10.10;76.40
71879;DHT22;59755;43.834;4.364;2022-11-25T05:14:43;10.10;76.30
71879;DHT22;59755;43.834;4.364;2022-11-25T05:17:14;10.00;76.40
71879;DHT22;59755;43.834;4.364;2022-11-25T05:19:40;10.00;76.50
71879;DHT22;59755;43.834;4.364;2022-11-25T05:22:10;9.90;76.60
71879;DHT22;59755;43.834;4.364;2022-11-25T05:24:36;10.00;76.70
71879;DHT22;59755;43.834;4.364;2022-11-25T05:27:02;10.00;76.40
71879;DHT22;59755;43.834;4.364;2022-11-25T05:29:27;9.90;76.90
71879;DHT22;59755;43.834;4.364;2022-11-25T05:31:53;9.80;77.10
71879;DHT22;59755;43.834;4.364;2022-11-25T05:34:19;9.80;77.50
71879;DHT22;59755;43.834;4.364;2022-11-25T05:36:45;9.70;77.80
71879;DHT22;59755;43.834;4.364;2022-11-25T05:39:10;9.60;78.10
71879;DHT22;59755;43.834;4.364;2022-11-25T05:41:36;9.50;78.40
71879;DHT22;59755;43.834;4.364;2022-11-25T05:44:02;9.50;78.50
71879;DHT22;59755;43.834;4.364;2022-11-25T05:46:29;9.40;79.30
71879;DHT22;59755;43.834;4.364;2022-11-25T05:48:56;9.40;79.30
71879;DHT22;59755;43.834;4.364;2022-11-25T05:51:23;9.40;79.10
71879;DHT22;59755;43.834;4.364;2022-11-25T05:53:49;9.40;78.90
71879;DHT22;59755;43.834;4.364;2022-11-25T05:56:15;9.40;78.90
71879;DHT22;59755;43.834;4.364;2022-11-25T05:58:41;9.40;79.10
71879;DHT22;59755;43.834;4.364;2022-11-25T06:01:08;9.40;79.00
71879;DHT22;59755;43.834;4.364;2022-11-25T06:03:34;9.40;79.10
71879;DHT22;59755;43.834;4.364;2022-11-25T06:06:00;9.40;79.10
71879;DHT22;59755;43.834;4.364;2022-11-25T06:08:27;9.40;79.10
71879;DHT22;59755;43.834;4.364;2022-11-25T06:10:53;9.50;78.80
71879;DHT22;59755;43.834;4.364;2022-11-25T06:13:19;9.50;77.90
71879;DHT22;59755;43.834;4.364;2022-11-25T06:15:46;9.50;77.90
71879;DHT22;59755;43.834;4.364;2022-11-25T06:18:14;9.40;77.90
71879;DHT22;59755;43.834;4.364;2022-11-25T06:20:40;9.30;78.50
71879;DHT22;59755;43.834;4.364;2022-11-25T06:23:06;9.20;78.90
71879;DHT22;59755;43.834;4.364;2022-11-25T06:25:32;9.10;79.40
71879;DHT22;59755;43.834;4.364;2022-11-25T06:27:58;9.10;79.40
71879;DHT22;59755;43.834;4.364;2022-11-25T06:30:24;9.10;79.50
71879;DHT22;59755;43.834;4.364;2022-11-25T06:32:50;9.20;79.10
71879;DHT22;59755;43.834;4.364;2022-11-25T06:35:18;9.30;78.30
71879;DHT22;59755;43.834;4.364;2022-11-25T06:37:44;9.40;78.10
71879;DHT22;59755;43.834;4.364;2022-11-25T06:40:09;9.30;77.80
71879;DHT22;59755;43.834;4.364;2022-11-25T06:42:37;9.30;77.80
71879;DHT22;59755;43.834;4.364;2022-11-25T06:45:04;9.40;77.70
71879;DHT22;59755;43.834;4.364;2022-11-25T06:47:30;9.50;77.60
71879;DHT22;59755;43.834;4.364;2022-11-25T06:49:55;9.40;78.00
71879;DHT22;59755;43.834;4.364;2022-11-25T06:52:21;9.50;77.90
71879;DHT22;59755;43.834;4.364;2022-11-25T06:54:47;9.50;77.20
71879;DHT22;59755;43.834;4.364;2022-11-25T06:57:16;9.50;77.00
71879;DHT22;59755;43.834;4.364;2022-11-25T06:59:42;9.50;76.80
71879;DHT22;59755;43.834;4.364;2022-11-25T07:02:12;9.40;77.00
71879;DHT22;59755;43.834;4.364;2022-11-25T07:04:38;9.30;77.80
71879;DHT22;59755;43.834;4.364;2022-11-25T07:07:05;9.20;78.30
71879;DHT22;59755;43.834;4.364;2022-11-25T07:09:31;9.00;79.00
71879;DHT22;59755;43.834;4.364;2022-11-25T07:11:57;8.90;79.60
71879;DHT22;59755;43.834;4.364;2022-11-25T07:14:23;8.90;79.90
71879;DHT22;59755;43.834;4.364;2022-11-25T07:16:49;8.90;80.20
71879;DHT22;59755;43.834;4.364;2022-11-25T07:19:16;8.90;80.30
71879;DHT22;59755;43.834;4.364;2022-11-25T07:21:43;8.90;80.30
71879;DHT22;59755;43.834;4.364;2022-11-25T07:24:15;9.00;80.00
71879;DHT22;59755;43.834;4.364;2022-11-25T07:26:42;9.10;79.30
71879;DHT22;59755;43.834;4.364;2022-11-25T07:29:10;9.20;78.70
71879;DHT22;59755;43.834;4.364;2022-11-25T07:31:42;9.30;78.40
71879;DHT22;59755;43.834;4.364;2022-11-25T07:34:15;9.30;78.10
71879;DHT22;59755;43.834;4.364;2022-11-25T07:36:46;9.40;77.80
71879;DHT22;59755;43.834;4.364;2022-11-25T07:39:17;9.50;78.20
71879;DHT22;59755;43.834;4.364;2022-11-25T07:41:44;9.50;77.50
71879;DHT22;59755;43.834;4.364;2022-11-25T07:44:12;9.50;77.50
71879;DHT22;59755;43.834;4.364;2022-11-25T07:46:41;9.50;77.20
71879;DHT22;59755;43.834;4.364;2022-11-25T07:49:10;9.50;77.10
71879;DHT22;59755;43.834;4.364;2022-11-25T07:51:42;9.70;76.70
71879;DHT22;59755;43.834;4.364;2022-11-25T07:54:10;9.70;76.80
71879;DHT22;59755;43.834;4.364;2022-11-25T07:56:37;9.90;76.80
71879;DHT22;59755;43.834;4.364;2022-11-25T07:59:04;9.90;75.30
71879;DHT22;59755;43.834;4.364;2022-11-25T08:01:30;9.90;75.20
71879;DHT22;59755;43.834;4.364;2022-11-25T08:03:56;9.90;75.70
71879;DHT22;59755;43.834;4.364;2022-11-25T08:06:25;9.90;76.30
71879;DHT22;59755;43.834;4.364;2022-11-25T08:08:51;10.00;75.80
71879;DHT22;59755;43.834;4.364;2022-11-25T08:11:22;10.20;74.70
71879;DHT22;59755;43.834;4.364;2022-11-25T08:13:48;10.20;74.30
71879;DHT22;59755;43.834;4.364;2022-11-25T08:16:17;10.30;74.30
71879;DHT22;59755;43.834;4.364;2022-11-25T08:18:44;10.30;74.70
71879;DHT22;59755;43.834;4.364;2022-11-25T08:21:11;10.40;74.20
71879;DHT22;59755;43.834;4.364;2022-11-25T08:23:38;10.50;74.60
71879;DHT22;59755;43.834;4.364;2022-11-25T08:26:07;10.60;74.40
71879;DHT22;59755;43.834;4.364;2022-11-25T08:28:34;10.60;73.80
71879;DHT22;59755;43.834;4.364;2022-11-25T08:31:04;10.70;74.20
71879;DHT22;59755;43.834;4.364;2022-11-25T08:33:30;10.90;73.10
71879;DHT22;59755;43.834;4.364;2022-11-25T08:35:56;11.00;72.70
71879;DHT22;59755;43.834;4.364;2022-11-25T08:38:22;11.10;72.10
71879;DHT22;59755;43.834;4.364;2022-11-25T08:40:48;11.20;71.90
71879;DHT22;59755;43.834;4.364;2022-11-25T08:43:13;11.30;71.60
71879;DHT22;59755;43.834;4.364;2022-11-25T08:45:40;11.40;71.00
71879;DHT22;59755;43.834;4.364;2022-11-25T08:48:06;11.50;71.30
71879;DHT22;59755;43.834;4.364;2022-11-25T08:50:32;11.60;71.30
71879;DHT22;59755;43.834;4.364;2022-11-25T08:52:58;11.70;70.60
71879;DHT22;59755;43.834;4.364;2022-11-25T08:55:26;11.80;70.40
71879;DHT22;59755;43.834;4.364;2022-11-25T08:57:53;12.10;69.90
71879;DHT22;59755;43.834;4.364;2022-11-25T09:00:19;12.30;68.90
71879;DHT22;59755;43.834;4.364;2022-11-25T09:02:45;12.40;68.10
71879;DHT22;59755;43.834;4.364;2022-11-25T09:05:14;12.60;68.20
71879;DHT22;59755;43.834;4.364;2022-11-25T09:07:40;12.60;67.50
71879;DHT22;59755;43.834;4.364;2022-11-25T09:10:09;12.80;66.90
71879;DHT22;59755;43.834;4.364;2022-11-25T09:12:37;12.80;66.10
71879;DHT22;59755;43.834;4.364;2022-11-25T09:15:04;12.90;66.10
71879;DHT22;59755;43.834;4.364;2022-11-25T09:17:30;13.00;66.10
71879;DHT22;59755;43.834;4.364;2022-11-25T09:19:56;13.00;65.80
71879;DHT22;59755;43.834;4.364;2022-11-25T09:22:21;13.10;65.60
71879;DHT22;59755;43.834;4.364;2022-11-25T09:24:47;13.20;64.80
71879;DHT22;59755;43.834;4.364;2022-11-25T09:27:13;13.30;64.60
71879;DHT22;59755;43.834;4.364;2022-11-25T09:29:39;13.60;64.40
71879;DHT22;59755;43.834;4.364;2022-11-25T09:32:05;13.70;63.30
71879;DHT22;59755;43.834;4.364;2022-11-25T09:34:31;13.90;63.20
71879;DHT22;59755;43.834;4.364;2022-11-25T09:36:56;14.00;63.00
71879;DHT22;59755;43.834;4.364;2022-11-25T09:39:22;14.20;62.10
71879;DHT22;59755;43.834;4.364;2022-11-25T09:45:15;14.80;60.10
71879;DHT22;59755;43.834;4.364;2022-11-25T09:49:06;15.40;59.20
71879;DHT22;59755;43.834;4.364;2022-11-25T09:53:44;17.00;55.00
71879;DHT22;59755;43.834;4.364;2022-11-25T09:58:50;17.90;52.80
71879;DHT22;59755;43.834;4.364;2022-11-25T10:01:20;18.30;51.70
71879;DHT22;59755;43.834;4.364;2022-11-25T10:06:31;18.20;51.10
71879;DHT22;59755;43.834;4.364;2022-11-25T10:09:03;18.40;50.30
71879;DHT22;59755;43.834;4.364;2022-11-25T10:12:01;18.40;49.70
71879;DHT22;59755;43.834;4.364;2022-11-25T10:19:53;18.40;48.70
71879;DHT22;59755;43.834;4.364;2022-11-25T10:22:23;18.30;50.20
71879;DHT22;59755;43.834;4.364;2022-11-25T10:24:52;18.30;50.00
71879;DHT22;59755;43.834;4.364;2022-11-25T10:27:59;18.00;51.00
71879;DHT22;59755;43.834;4.364;2022-11-25T10:30:41;17.90;51.50
71879;DHT22;59755;43.834;4.364;2022-11-25T10:33:25;17.80;52.00
71879;DHT22;59755;43.834;4.364;2022-11-25T10:39:08;17.80;51.60
71879;DHT22;59755;43.834;4.364;2022-11-25T10:44:39;17.80;52.30
71879;DHT22;59755;43.834;4.364;2022-11-25T10:47:18;17.90;52.40
71879;DHT22;59755;43.834;4.364;2022-11-25T10:52:20;18.10;52.40
71879;DHT22;59755;43.834;4.364;2022-11-25T10:55:11;18.00;52.50
71879;DHT22;59755;43.834;4.364;2022-11-25T10:57:37;18.00;52.50
71879;DHT22;59755;43.834;4.364;2022-11-25T11:00:04;17.90;52.40
71879;DHT22;59755;43.834;4.364;2022-11-25T11:05:02;17.80;52.70
71879;DHT22;59755;43.834;4.364;2022-11-25T11:07:32;17.90;53.30
71879;DHT22;59755;43.834;4.364;2022-11-25T11:17:55;17.30;54.00
71879;DHT22;59755;43.834;4.364;2022-11-25T11:20:31;17.40;53.50
71879;DHT22;59755;43.834;4.364;2022-11-25T11:23:00;17.50;53.30
71879;DHT22;59755;43.834;4.364;2022-11-25T11:25:29;17.50;53.60
71879;DHT22;59755;43.834;4.364;2022-11-25T11:27:55;17.60;53.50
71879;DHT22;59755;43.834;4.364;2022-11-25T11:30:24;17.70;52.70
71879;DHT22;59755;43.834;4.364;2022-11-25T11:35:49;17.80;52.90
71879;DHT22;59755;43.834;4.364;2022-11-25T11:41:18;17.90;52.50
71879;DHT22;59755;43.834;4.364;2022-11-25T11:44:17;17.70;53.10
71879;DHT22;59755;43.834;4.364;2022-11-25T11:51:59;18.40;50.50
71879;DHT22;59755;43.834;4.364;2022-11-25T11:57:05;18.40;50.00
71879;DHT22;59755;43.834;4.364;2022-11-25T11:59:50;18.60;50.30
71879;DHT22;59755;43.834;4.364;2022-11-25T12:02:38;18.70;49.10
71879;DHT22;59755;43.834;4.364;2022-11-25T12:10:35;18.90;48.50
71879;DHT22;59755;43.834;4.364;2022-11-25T12:18:37;19.50;48.00
71879;DHT22;59755;43.834;4.364;2022-11-25T12:29:19;19.30;49.00
71879;DHT22;59755;43.834;4.364;2022-11-25T12:32:07;19.20;49.70
71879;DHT22;59755;43.834;4.364;2022-11-25T12:34:43;18.50;50.80
71879;DHT22;59755;43.834;4.364;2022-11-25T12:37:26;18.40;51.50
71879;DHT22;59755;43.834;4.364;2022-11-25T12:42:39;18.30;52.10
71879;DHT22;59755;43.834;4.364;2022-11-25T12:45:24;18.40;52.00
71879;DHT22;59755;43.834;4.364;2022-11-25T12:47:50;18.50;52.10
71879;DHT22;59755;43.834;4.364;2022-11-25T12:50:22;18.40;52.40
71879;DHT22;59755;43.834;4.364;2022-11-25T12:53:08;18.40;52.00
71879;DHT22;59755;43.834;4.364;2022-11-25T12:55:38;18.30;52.00
71879;DHT22;59755;43.834;4.364;2022-11-25T13:10:46;17.70;52.80
71879;DHT22;59755;43.834;4.364;2022-11-25T13:16:00;17.30;54.30
71879;DHT22;59755;43.834;4.364;2022-11-25T13:18:30;17.00;54.90
71879;DHT22;59755;43.834;4.364;2022-11-25T13:21:06;16.90;55.90
71879;DHT22;59755;43.834;4.364;2022-11-25T13:23:58;16.60;57.40
71879;DHT22;59755;43.834;4.364;2022-11-25T13:28:53;16.20;58.90
71879;DHT22;59755;43.834;4.364;2022-11-25T13:31:22;15.90;59.30
71879;DHT22;59755;43.834;4.364;2022-11-25T13:36:25;15.60;60.10
71879;DHT22;59755;43.834;4.364;2022-11-25T13:39:12;15.60;60.80
71879;DHT22;59755;43.834;4.364;2022-11-25T13:42:00;15.20;61.70
71879;DHT22;59755;43.834;4.364;2022-11-25T13:44:34;15.10;63.00
71879;DHT22;59755;43.834;4.364;2022-11-25T13:47:33;15.00;63.40
71879;DHT22;59755;43.834;4.364;2022-11-25T13:52:46;14.70;63.80
71879;DHT22;59755;43.834;4.364;2022-11-25T13:57:44;14.20;66.80
71879;DHT22;59755;43.834;4.364;2022-11-25T14:02:43;13.80;70.40
71879;DHT22;59755;43.834;4.364;2022-11-25T14:05:20;13.70;72.40
71879;DHT22;59755;43.834;4.364;2022-11-25T14:19:01;13.10;75.90
71879;DHT22;59755;43.834;4.364;2022-11-25T14:26:51;12.70;78.50
71879;DHT22;59755;43.834;4.364;2022-11-25T14:29:40;12.60;78.10
71879;DHT22;59755;43.834;4.364;2022-11-25T14:33:03;12.60;79.30
71879;DHT22;59755;43.834;4.364;2022-11-25T14:35:39;12.50;77.80
71879;DHT22;59755;43.834;4.364;2022-11-25T14:38:14;12.50;78.50
71879;DHT22;59755;43.834;4.364;2022-11-25T14:40:42;12.60;78.00
71879;DHT22;59755;43.834;4.364;2022-11-25T14:43:15;12.60;78.00
71879;DHT22;59755;43.834;4.364;2022-11-25T14:45:41;12.50;77.90
71879;DHT22;59755;43.834;4.364;2022-11-25T14:48:33;12.40;77.20
71879;DHT22;59755;43.834;4.364;2022-11-25T14:51:02;12.40;78.60
71879;DHT22;59755;43.834;4.364;2022-11-25T14:53:29;12.40;78.40
71879;DHT22;59755;43.834;4.364;2022-11-25T14:55:56;12.50;77.60
71879;DHT22;59755;43.834;4.364;2022-11-25T14:58:25;12.60;77.80
71879;DHT22;59755;43.834;4.364;2022-11-25T15:01:02;12.60;77.40
71879;DHT22;59755;43.834;4.364;2022-11-25T15:03:28;12.70;77.60
71879;DHT22;59755;43.834;4.364;2022-11-25T15:05:56;12.70;77.00
71879;DHT22;59755;43.834;4.364;2022-11-25T15:08:23;12.60;76.70
71879;DHT22;59755;43.834;4.364;2022-11-25T15:10:53;12.50;78.00
71879;DHT22;59755;43.834;4.364;2022-11-25T15:13:31;12.50;77.60
71879;DHT22;59755;43.834;4.364;2022-11-25T15:16:19;12.30;78.60
71879;DHT22;59755;43.834;4.364;2022-11-25T15:21:13;12.20;79.30
71879;DHT22;59755;43.834;4.364;2022-11-25T15:23:39;12.20;80.40
71879;DHT22;59755;43.834;4.364;2022-11-25T15:26:16;12.10;80.00
71879;DHT22;59755;43.834;4.364;2022-11-25T15:28:43;12.00;80.60
71879;DHT22;59755;43.834;4.364;2022-11-25T15:31:14;12.00;80.30
71879;DHT22;59755;43.834;4.364;2022-11-25T15:33:41;12.00;81.00
71879;DHT22;59755;43.834;4.364;2022-11-25T15:36:07;12.00;81.40
71879;DHT22;59755;43.834;4.364;2022-11-25T15:38:42;11.90;81.70
71879;DHT22;59755;43.834;4.364;2022-11-25T15:41:19;11.90;81.20
71879;DHT22;59755;43.834;4.364;2022-11-25T15:43:47;11.90;79.90
71879;DHT22;59755;43.834;4.364;2022-11-25T15:46:14;11.90;81.50
71879;DHT22;59755;43.834;4.364;2022-11-25T15:48:43;12.00;80.80
71879;DHT22;59755;43.834;4.364;2022-11-25T15:51:40;12.00;80.70
71879;DHT22;59755;43.834;4.364;2022-11-25T15:54:32;12.00;79.70
71879;DHT22;59755;43.834;4.364;2022-11-25T15:57:14;11.90;80.50
71879;DHT22;59755;43.834;4.364;2022-11-25T16:00:12;11.80;80.60
71879;DHT22;59755;43.834;4.364;2022-11-25T16:18:23;11.60;80.00
71879;DHT22;59755;43.834;4.364;2022-11-25T16:20:54;11.60;80.90
71879;DHT22;59755;43.834;4.364;2022-11-25T16:23:21;11.60;81.70
71879;DHT22;59755;43.834;4.364;2022-11-25T16:25:57;11.50;81.00
71879;DHT22;59755;43.834;4.364;2022-11-25T16:28:23;11.40;81.80
71879;DHT22;59755;43.834;4.364;2022-11-25T16:30:50;11.40;81.50
71879;DHT22;59755;43.834;4.364;2022-11-25T16:33:16;11.30;82.50
71879;DHT22;59755;43.834;4.364;2022-11-25T16:35:42;11.30;83.00
71879;DHT22;59755;43.834;4.364;2022-11-25T16:38:12;11.20;83.60
71879;DHT22;59755;43.834;4.364;2022-11-25T16:40:38;11.20;83.70
71879;DHT22;59755;43.834;4.364;2022-11-25T16:43:12;11.20;83.10
71879;DHT22;59755;43.834;4.364;2022-11-25T16:45:38;11.20;82.90
71879;DHT22;59755;43.834;4.364;2022-11-25T16:48:15;11.30;82.80
71879;DHT22;59755;43.834;4.364;2022-11-25T16:50:42;11.20;82.30
71879;DHT22;59755;43.834;4.364;2022-11-25T16:53:08;11.20;82.70
71879;DHT22;59755;43.834;4.364;2022-11-25T16:55:34;11.20;82.90
71879;DHT22;59755;43.834;4.364;2022-11-25T16:58:01;11.20;82.80
71879;DHT22;59755;43.834;4.364;2022-11-25T17:00:27;11.10;82.80
71879;DHT22;59755;43.834;4.364;2022-11-25T17:02:53;11.10;82.50
71879;DHT22;59755;43.834;4.364;2022-11-25T17:05:21;11.10;82.70
71879;DHT22;59755;43.834;4.364;2022-11-25T17:07:48;11.10;82.70
71879;DHT22;59755;43.834;4.364;2022-11-25T17:10:18;11.10;82.50
71879;DHT22;59755;43.834;4.364;2022-11-25T17:12:45;11.10;82.80
71879;DHT22;59755;43.834;4.364;2022-11-25T17:15:32;11.00;82.90
71879;DHT22;59755;43.834;4.364;2022-11-25T17:18:00;11.00;83.00
71879;DHT22;59755;43.834;4.364;2022-11-25T17:20:25;11.00;82.90
71879;DHT22;59755;43.834;4.364;2022-11-25T17:22:52;11.00;82.80
71879;DHT22;59755;43.834;4.364;2022-11-25T17:25:18;11.00;82.40
71879;DHT22;59755;43.834;4.364;2022-11-25T17:27:46;11.00;82.20
71879;DHT22;59755;43.834;4.364;2022-11-25T17:30:26;11.00;82.40
71879;DHT22;59755;43.834;4.364;2022-11-25T17:32:58;11.00;81.20
71879;DHT22;59755;43.834;4.364;2022-11-25T17:35:25;11.00;81.30
71879;DHT22;59755;43.834;4.364;2022-11-25T17:37:51;11.10;81.40
71879;DHT22;59755;43.834;4.364;2022-11-25T17:40:17;11.10;80.90
71879;DHT22;59755;43.834;4.364;2022-11-25T17:42:44;11.00;80.00
71879;DHT22;59755;43.834;4.364;2022-11-25T17:45:15;11.00;79.90
71879;DHT22;59755;43.834;4.364;2022-11-25T17:47:41;11.00;80.30
71879;DHT22;59755;43.834;4.364;2022-11-25T17:52:44;11.00;79.30
71879;DHT22;59755;43.834;4.364;2022-11-25T17:55:10;11.00;80.20
71879;DHT22;59755;43.834;4.364;2022-11-25T17:57:36;11.00;78.90
71879;DHT22;59755;43.834;4.364;2022-11-25T18:00:03;11.00;79.60
71879;DHT22;59755;43.834;4.364;2022-11-25T18:02:29;11.00;78.30
71879;DHT22;59755;43.834;4.364;2022-11-25T18:04:55;11.00;77.70
71879;DHT22;59755;43.834;4.364;2022-11-25T18:07:21;11.00;79.20
71879;DHT22;59755;43.834;4.364;2022-11-25T18:09:46;11.00;78.50
71879;DHT22;59755;43.834;4.364;2022-11-25T18:12:26;11.10;77.60
71879;DHT22;59755;43.834;4.364;2022-11-25T18:14:53;11.00;77.10
71879;DHT22;59755;43.834;4.364;2022-11-25T18:17:19;11.10;76.30
71879;DHT22;59755;43.834;4.364;2022-11-25T18:19:46;11.00;76.20
71879;DHT22;59755;43.834;4.364;2022-11-25T18:22:17;11.00;77.50